Terminal Aerodrome Forecast
Issued by NWS Shreveport, LA

Home | Current Version | Previous Version | Text Only | Print | Product List | Glossary On
Versions: 1 2 3 4 5 6 7 8 9 10 11 12 13 14 15 16 17 18 19 20 21 22 23 24
026
FTUS44 KSHV 231143
TAFMLU
TAF
KMLU 231143Z 2312/2412 18008KT P6SM OVC006
      TEMPO 2312/2315 4SM BR SCT008 OVC020
     FM231500 19008KT P6SM OVC030
     FM231900 17006KT P6SM VCTS BKN040CB
     FM240200 17004KT P6SM OVC010
      TEMPO 2402/2406 BKN020=

USA.gov is the U.S. government's official web portal to all federal, state and local government web resources and services.